Time;durP1;ratioP1;P1;durP2;ratioP2;P2;SDS_P1;SDS_P2;PMS_P1;PMS_P2;Temp;Humidity;BMP_temperature;BMP_pressure;BME280_temperature;BME280_humidity;BME280_pressure;Samples;Min_cycle;Max_cycle;Signal;HPM_P1;HPM_P2
2021/10/31 00:01:41;;;;;;;1999.90;999.90;;;16.10;99.90;;;;;;5076311;28;20168;-66
2021/10/31 00:04:08;;;;;;;1999.90;999.90;;;16.10;99.90;;;;;;5076347;28;20502;-65
2021/10/31 00:06:34;;;;;;;1999.90;999.90;;;16.10;99.90;;;;;;5076246;28;20179;-65
2021/10/31 00:09:06;;;;;;;1999.90;999.90;;;16.00;99.90;;;;;;5076361;28;20505;-65
2021/10/31 00:11:34;;;;;;;1999.90;999.90;;;16.00;99.90;;;;;;5076101;28;20191;-65
2021/10/31 00:14:01;;;;;;;1999.90;999.90;;;16.00;99.90;;;;;;5075886;28;20545;-65
2021/10/31 00:16:28;;;;;;;1999.90;999.90;;;16.00;99.90;;;;;;5076116;28;20193;-65
2021/10/31 00:18:55;;;;;;;1999.90;999.90;;;16.00;99.90;;;;;;5076266;28;20189;-65
2021/10/31 00:21:25;;;;;;;1999.90;999.90;;;15.90;99.90;;;;;;5075973;28;20168;-65
2021/10/31 00:23:52;;;;;;;1999.90;999.90;;;15.90;99.90;;;;;;5075921;28;20191;-65
2021/10/31 00:26:19;;;;;;;1999.90;999.90;;;15.90;99.90;;;;;;5075941;28;20176;-64
2021/10/31 00:28:46;;;;;;;1999.90;999.90;;;15.80;99.90;;;;;;5076068;28;20167;-66
2021/10/31 00:31:13;;;;;;;1999.90;999.90;;;15.90;99.90;;;;;;5075847;28;20168;-65
2021/10/31 00:33:40;;;;;;;1999.90;999.90;;;15.90;99.90;;;;;;5075753;28;20161;-66
2021/10/31 00:36:07;;;;;;;1999.90;999.90;;;15.90;99.90;;;;;;5075775;28;20279;-65
2021/10/31 00:38:34;;;;;;;1999.90;999.90;;;16.00;99.90;;;;;;5075737;28;20619;-65
2021/10/31 00:41:01;;;;;;;1999.90;999.90;;;16.00;99.90;;;;;;5075787;28;20171;-66
2021/10/31 00:43:28;;;;;;;1999.90;999.90;;;16.00;99.90;;;;;;5075670;28;20176;-65
2021/10/31 00:45:55;;;;;;;1999.90;999.90;;;16.00;99.90;;;;;;5074337;28;20180;-66
2021/10/31 00:48:22;;;;;;;1999.90;999.90;;;15.90;99.90;;;;;;5075533;28;20711;-66
2021/10/31 00:50:52;;;;;;;1999.90;999.90;;;15.90;99.90;;;;;;5075507;28;20176;-65
2021/10/31 00:53:19;;;;;;;1999.90;999.90;;;15.90;99.90;;;;;;5075460;28;20161;-65
2021/10/31 00:55:46;;;;;;;1999.90;999.90;;;15.90;99.90;;;;;;5075322;28;20195;-65
2021/10/31 00:58:13;;;;;;;1999.90;999.90;;;15.90;99.90;;;;;;5075429;28;20164;-64
2021/10/31 01:00:41;;;;;;;1999.90;999.90;;;15.80;99.90;;;;;;5074521;28;20172;-65
2021/10/31 01:03:08;;;;;;;1999.90;999.90;;;15.80;99.90;;;;;;5075371;28;20251;-65
2021/10/31 01:05:42;;;;;;;1999.90;999.90;;;15.70;99.90;;;;;;5075232;28;20172;-65
2021/10/31 01:08:18;;;;;;;1999.90;999.90;;;15.70;99.90;;;;;;5075540;28;20381;-65
2021/10/31 01:11:04;;;;;;;1999.90;999.90;;;15.70;99.90;;;;;;5075298;28;20235;-65
2021/10/31 01:14:02;;;;;;;1999.90;999.90;;;15.70;99.90;;;;;;5075420;28;20185;-65
2021/10/31 01:16:56;;;;;;;1999.90;999.90;;;15.70;99.90;;;;;;5073351;28;20220;-66
2021/10/31 01:19:41;;;;;;;1999.90;999.90;;;15.70;99.90;;;;;;5074994;28;20153;-65
2021/10/31 01:22:32;;;;;;;1999.90;999.90;;;15.70;99.90;;;;;;5075035;28;20148;-66
2021/10/31 01:25:37;;;;;;;1999.90;999.90;;;15.60;99.90;;;;;;5073619;28;20175;-65
2021/10/31 01:28:25;;;;;;;1999.90;999.90;;;15.60;99.90;;;;;;5067460;28;20587;-65
2021/10/31 01:31:07;;;;;;;1999.90;999.90;;;15.50;99.90;;;;;;5074778;28;20591;-66
2021/10/31 01:33:56;;;;;;;1999.90;999.90;;;15.50;99.90;;;;;;5073832;28;20526;-66
2021/10/31 01:36:28;;;;;;;1999.90;999.90;;;15.50;99.90;;;;;;5074679;28;20196;-65
2021/10/31 01:39:22;;;;;;;1999.90;999.90;;;15.50;99.90;;;;;;5074710;28;20168;-65
2021/10/31 01:42:02;;;;;;;1999.90;999.90;;;15.50;99.90;;;;;;5074682;28;20649;-65
2021/10/31 01:44:47;;;;;;;1999.90;999.90;;;15.50;99.90;;;;;;5073303;28;20168;-66
2021/10/31 01:48:04;;;;;;;1999.90;999.90;;;15.60;99.90;;;;;;5074501;28;20157;-65
2021/10/31 01:50:43;;;;;;;1999.90;999.90;;;15.50;99.90;;;;;;5051364;28;20657;-66
2021/10/31 01:53:18;;;;;;;1999.90;999.90;;;15.50;99.90;;;;;;5074788;28;20164;-66
2021/10/31 01:56:10;;;;;;;1999.90;999.90;;;15.40;99.90;;;;;;5074327;28;20199;-66
2021/10/31 01:58:46;;;;;;;1999.90;999.90;;;15.30;99.90;;;;;;5073200;28;20177;-66
2021/10/31 02:01:16;;;;;;;1999.90;999.90;;;15.30;99.90;;;;;;5074207;28;20618;-66
2021/10/31 02:03:44;;;;;;;1999.90;999.90;;;15.30;99.90;;;;;;5074143;28;20196;-65
2021/10/31 02:06:12;;;;;;;1999.90;999.90;;;15.30;99.90;;;;;;5074115;28;20176;-65
2021/10/31 02:08:42;;;;;;;1999.90;999.90;;;15.30;99.90;;;;;;5074063;28;20161;-65
2021/10/31 02:11:11;;;;;;;1999.90;999.90;;;15.30;99.90;;;;;;5074148;28;20172;-65
2021/10/31 02:13:40;;;;;;;1999.90;999.90;;;15.30;99.90;;;;;;5073875;28;20164;-64
2021/10/31 02:16:07;;;;;;;1999.90;999.90;;;15.20;99.90;;;;;;5073875;28;20235;-65
2021/10/31 02:18:35;;;;;;;1999.90;999.90;;;15.20;99.90;;;;;;5073998;28;20250;-64
2021/10/31 02:21:03;;;;;;;1999.90;999.90;;;15.20;99.90;;;;;;5073764;28;20290;-65
2021/10/31 02:23:30;;;;;;;1999.90;999.90;;;15.20;99.90;;;;;;5073748;28;20183;-65
2021/10/31 02:25:57;;;;;;;1999.90;999.90;;;15.20;99.90;;;;;;5073689;28;20161;-64
2021/10/31 02:28:24;;;;;;;1999.90;999.90;;;15.10;99.90;;;;;;5073761;28;20595;-65
2021/10/31 02:30:51;;;;;;;1999.90;999.90;;;15.10;99.90;;;;;;5073533;28;20626;-65
2021/10/31 02:33:18;;;;;;;1999.90;999.90;;;15.10;99.90;;;;;;5073586;28;20179;-65
2021/10/31 02:35:45;;;;;;;1999.90;999.90;;;15.10;99.90;;;;;;5073533;28;20231;-66
2021/10/31 02:38:12;;;;;;;1999.90;999.90;;;15.10;99.90;;;;;;5073452;28;20169;-65
2021/10/31 02:40:39;;;;;;;1999.90;999.90;;;15.20;99.90;;;;;;5073543;28;20171;-66
2021/10/31 02:43:06;;;;;;;1999.90;999.90;;;15.10;99.90;;;;;;5073405;28;20168;-66
2021/10/31 02:45:33;;;;;;;1999.90;999.90;;;15.00;99.90;;;;;;5073344;28;20161;-65
2021/10/31 02:48:05;;;;;;;1999.90;999.90;;;15.10;99.90;;;;;;5073326;28;20172;-66
2021/10/31 02:50:37;;;;;;;1999.90;999.90;;;15.00;99.90;;;;;;5073318;28;20164;-66
2021/10/31 02:53:16;;;;;;;1999.90;999.90;;;15.10;99.90;;;;;;5073232;28;20157;-66
2021/10/31 02:56:07;;;;;;;1999.90;999.90;;;15.00;99.90;;;;;;5073266;28;20278;-64
2021/10/31 02:59:01;;;;;;;1999.90;999.90;;;15.10;99.90;;;;;;5073160;28;20243;-65
2021/10/31 03:01:29;;;;;;;1999.90;999.90;;;15.10;99.90;;;;;;5073100;28;20192;-66
2021/10/31 03:03:59;;;;;;;1999.90;999.90;;;15.10;99.90;;;;;;5073023;28;20179;-65
2021/10/31 03:06:26;;;;;;;1999.90;999.90;;;15.10;99.90;;;;;;5071718;28;20219;-65
2021/10/31 03:08:53;;;;;;;1999.90;999.90;;;15.10;99.90;;;;;;5073090;28;20169;-65
2021/10/31 03:11:20;;;;;;;1999.90;999.90;;;15.10;99.90;;;;;;5072991;28;20293;-65
2021/10/31 03:13:47;;;;;;;1999.90;999.90;;;15.10;99.90;;;;;;5072756;28;20586;-65
2021/10/31 03:16:14;;;;;;;1999.90;999.90;;;15.10;99.90;;;;;;5073019;28;20681;-66
2021/10/31 03:18:41;;;;;;;1999.90;999.90;;;15.10;99.90;;;;;;5072969;28;20210;-66
2021/10/31 03:21:08;;;;;;;1999.90;999.90;;;15.20;99.90;;;;;;5072962;28;20161;-67
2021/10/31 03:23:35;;;;;;;1999.90;999.90;;;15.30;99.90;;;;;;5072463;28;20694;-66
2021/10/31 03:26:02;;;;;;;1999.90;999.90;;;15.30;99.90;;;;;;5071621;28;20180;-66
2021/10/31 03:28:28;;;;;;;1999.90;999.90;;;15.40;99.90;;;;;;5072819;28;20171;-66
2021/10/31 03:30:55;;;;;;;1999.90;999.90;;;15.40;99.90;;;;;;5072802;28;20225;-67
2021/10/31 03:33:22;;;;;;;1999.90;999.90;;;15.40;99.90;;;;;;5072756;28;20199;-66
2021/10/31 03:35:51;;;;;;;1999.90;999.90;;;15.40;99.90;;;;;;5072653;28;20249;-67
2021/10/31 03:38:19;;;;;;;1999.90;999.90;;;15.40;99.90;;;;;;5072691;28;20633;-66
2021/10/31 03:40:47;;;;;;;1999.90;999.90;;;15.40;99.90;;;;;;5072725;28;20631;-66
2021/10/31 03:43:14;;;;;;;1999.90;999.90;;;15.40;99.90;;;;;;5072928;28;20534;-66
2021/10/31 03:45:41;;;;;;;1999.90;999.90;;;15.50;99.90;;;;;;5072669;28;20172;-65
2021/10/31 03:48:08;;;;;;;1999.90;999.90;;;15.40;99.90;;;;;;5072899;28;20176;-66
2021/10/31 03:50:35;;;;;;;1999.90;999.90;;;15.40;99.90;;;;;;5072550;28;20173;-67
2021/10/31 03:53:02;;;;;;;1999.90;999.90;;;15.30;99.90;;;;;;5072593;28;20549;-67
2021/10/31 03:55:29;;;;;;;1999.90;999.90;;;15.20;99.90;;;;;;5072446;28;20193;-66
2021/10/31 03:57:56;;;;;;;1999.90;999.90;;;15.20;99.90;;;;;;5072571;28;20200;-66
2021/10/31 04:00:23;;;;;;;1999.90;999.90;;;15.20;99.90;;;;;;5072449;28;20591;-67
2021/10/31 04:02:50;;;;;;;1999.90;999.90;;;15.20;99.90;;;;;;5072550;28;20175;-66
2021/10/31 04:05:17;;;;;;;1999.90;999.90;;;15.10;99.90;;;;;;5072568;28;20214;-67
2021/10/31 04:07:44;;;;;;;1999.90;999.90;;;15.20;99.90;;;;;;5072596;28;20172;-68
2021/10/31 04:10:11;;;;;;;1999.90;999.90;;;15.20;99.90;;;;;;5071111;28;20211;-66
2021/10/31 04:12:38;;;;;;;1999.90;999.90;;;15.20;99.90;;;;;;5072360;28;20204;-67
2021/10/31 04:15:06;;;;;;;1999.90;999.90;;;15.20;99.90;;;;;;5072106;28;20254;-67
2021/10/31 04:17:33;;;;;;;1999.90;999.90;;;15.20;99.90;;;;;;5072383;28;20173;-67
2021/10/31 04:20:00;;;;;;;1999.90;999.90;;;15.20;99.90;;;;;;5072094;28;20523;-68
2021/10/31 04:22:30;;;;;;;1999.90;999.90;;;15.20;99.90;;;;;;5072350;28;20503;-66
2021/10/31 04:24:58;;;;;;;1999.90;999.90;;;15.20;99.90;;;;;;5072250;28;20199;-67
2021/10/31 04:27:25;;;;;;;1999.90;999.90;;;15.10;99.90;;;;;;5072243;28;20172;-67
2021/10/31 04:29:52;;;;;;;1999.90;999.90;;;15.10;99.90;;;;;;5072086;28;20259;-66
2021/10/31 04:32:19;;;;;;;1999.90;999.90;;;15.00;99.90;;;;;;5071046;28;20172;-67
2021/10/31 04:34:46;;;;;;;1999.90;999.90;;;15.00;99.90;;;;;;5073320;28;20195;-66
2021/10/31 04:37:13;;;;;;;1999.90;999.90;;;15.00;99.90;;;;;;5075738;28;20193;-67
2021/10/31 04:39:47;;;;;;;1999.90;999.90;;;14.90;99.90;;;;;;5075723;28;20183;-66
2021/10/31 04:42:14;;;;;;;1999.90;999.90;;;15.00;99.90;;;;;;5075689;28;20580;-67
2021/10/31 04:44:42;;;;;;;1999.90;999.90;;;15.00;99.90;;;;;;5075678;28;20533;-67
2021/10/31 04:47:09;;;;;;;1999.90;999.90;;;15.10;99.90;;;;;;5075599;28;20168;-67
2021/10/31 04:49:36;;;;;;;1999.90;999.90;;;15.10;99.90;;;;;;5075531;28;20180;-67
2021/10/31 04:52:04;;;;;;;1999.90;999.90;;;15.30;99.90;;;;;;5075588;28;20516;-66
2021/10/31 04:54:31;;;;;;;1999.90;999.90;;;15.40;99.90;;;;;;5075512;28;20172;-66
2021/10/31 04:56:58;;;;;;;1999.90;999.90;;;15.50;99.90;;;;;;5075406;28;20350;-67
2021/10/31 04:59:25;;;;;;;1999.90;999.90;;;15.50;99.90;;;;;;5075309;28;20171;-67
2021/10/31 05:01:52;;;;;;;1999.90;999.90;;;15.70;99.90;;;;;;5075411;28;20535;-67
2021/10/31 05:04:19;;;;;;;1999.90;999.90;;;15.70;99.90;;;;;;5075441;28;20245;-67
2021/10/31 05:06:46;;;;;;;1999.90;999.90;;;15.80;99.90;;;;;;5075536;28;20497;-67
2021/10/31 05:09:13;;;;;;;1999.90;999.90;;;15.90;99.90;;;;;;5075281;28;20169;-69
2021/10/31 05:11:41;;;;;;;1999.90;999.90;;;16.00;99.90;;;;;;5074999;28;20165;-68
2021/10/31 05:14:08;;;;;;;1999.90;999.90;;;16.20;99.90;;;;;;5074823;28;20277;-68
2021/10/31 05:16:36;;;;;;;1999.90;999.90;;;16.30;99.90;;;;;;5075021;28;20677;-67
2021/10/31 05:19:05;;;;;;;1999.90;999.90;;;16.40;99.90;;;;;;5075030;28;20165;-67
2021/10/31 05:21:32;;;;;;;1999.90;999.90;;;16.50;99.90;;;;;;5074885;28;20623;-67
2021/10/31 05:23:59;;;;;;;1999.90;999.90;;;16.60;99.90;;;;;;5074944;28;20214;-66
2021/10/31 05:26:27;;;;;;;1999.90;999.90;;;16.80;99.90;;;;;;5074945;28;20168;-67
2021/10/31 05:28:55;;;;;;;1999.90;999.90;;;16.90;99.90;;;;;;5074879;28;20175;-68
2021/10/31 05:31:23;;;;;;;1999.90;999.90;;;17.10;99.90;;;;;;5074968;28;20256;-68
2021/10/31 05:33:51;;;;;;;1999.90;999.90;;;17.20;99.90;;;;;;5074710;28;20173;-68
2021/10/31 05:36:19;;;;;;;1999.90;999.90;;;17.30;99.90;;;;;;5074548;28;20257;-67
2021/10/31 05:38:47;;;;;;;1999.90;999.90;;;17.50;99.90;;;;;;5074688;28;20169;-68
2021/10/31 05:41:13;;;;;;;1999.90;999.90;;;17.70;99.90;;;;;;5074546;28;20225;-67
2021/10/31 05:43:40;;;;;;;1999.90;999.90;;;17.90;99.90;;;;;;5074565;28;20164;-67
2021/10/31 05:46:07;;;;;;;1999.90;999.90;;;18.10;99.90;;;;;;5074109;28;20169;-64
2021/10/31 05:48:34;;;;;;;1999.90;999.90;;;18.30;99.90;;;;;;5074508;28;20176;-66
2021/10/31 05:51:01;;;;;;;1999.90;999.90;;;18.50;99.90;;;;;;5074661;28;20188;-66
2021/10/31 05:53:29;;;;;;;1999.90;999.90;;;18.60;99.90;;;;;;5074441;28;20206;-67
2021/10/31 05:55:57;;;;;;;1999.90;999.90;;;18.60;99.90;;;;;;5074424;28;20208;-67
2021/10/31 05:58:24;;;;;;;1999.90;999.90;;;18.60;99.90;;;;;;5074279;28;20177;-66
2021/10/31 06:00:52;;;;;;;1999.90;999.90;;;18.70;99.90;;;;;;5074070;28;20313;-67
2021/10/31 06:03:19;;;;;;;1999.90;999.90;;;18.70;99.90;;;;;;5074073;28;20649;-66
2021/10/31 06:05:47;;;;;;;1999.90;999.90;;;18.80;99.90;;;;;;5074010;28;20168;-67
2021/10/31 06:08:15;;;;;;;1999.90;999.90;;;19.00;99.90;;;;;;5074000;28;20161;-67
2021/10/31 06:10:47;;;;;;;1999.90;999.90;;;19.10;99.90;;;;;;5073950;28;20189;-67
2021/10/31 06:13:14;;;;;;;1999.90;999.90;;;19.10;99.90;;;;;;5074013;28;20153;-67
2021/10/31 06:15:41;;;;;;;1999.90;999.90;;;19.20;99.90;;;;;;5073673;28;20220;-65
2021/10/31 06:18:08;;;;;;;1999.90;999.90;;;19.20;99.90;;;;;;5072681;28;20537;-67
2021/10/31 06:20:36;;;;;;;1999.90;999.90;;;19.20;99.90;;;;;;5073818;28;20168;-66
2021/10/31 06:23:03;;;;;;;1999.90;999.90;;;19.40;99.90;;;;;;5073688;28;20164;-66
2021/10/31 06:25:29;;;;;;;1999.90;999.90;;;19.60;99.90;;;;;;5073623;28;20221;-64
2021/10/31 06:27:56;;;;;;;1999.90;999.90;;;19.70;99.90;;;;;;5073794;28;20203;-65
2021/10/31 06:30:23;;;;;;;1999.90;999.90;;;19.80;99.90;;;;;;5073559;28;20646;-67
2021/10/31 06:32:50;;;;;;;1999.90;999.90;;;20.00;99.90;;;;;;5073751;28;20571;-66
2021/10/31 06:35:17;;;;;;;1999.90;999.90;;;20.30;99.90;;;;;;5072033;28;20177;-66
2021/10/31 06:37:44;;;;;;;1999.90;999.90;;;20.50;99.90;;;;;;5073643;28;20630;-67
2021/10/31 06:40:12;;;;;;;1999.90;999.90;;;20.70;99.90;;;;;;5073400;28;20192;-66
2021/10/31 06:42:39;;;;;;;1999.90;999.90;;;20.90;99.90;;;;;;5073304;28;20173;-66
2021/10/31 06:45:07;;;;;;;1999.90;999.90;;;21.00;99.90;;;;;;5073341;28;20168;-66
2021/10/31 06:47:34;;;;;;;1999.90;999.90;;;21.00;99.90;;;;;;5073240;28;20200;-66
2021/10/31 06:50:03;;;;;;;1999.90;999.90;;;21.10;99.90;;;;;;5073340;28;20187;-66
2021/10/31 06:52:30;;;;;;;1999.90;999.90;;;21.30;99.90;;;;;;5073485;28;20161;-66
2021/10/31 06:54:57;;;;;;;1999.90;999.90;;;21.40;99.90;;;;;;5073441;28;20205;-66
2021/10/31 06:57:24;;;;;;;1999.90;999.90;;;21.50;99.90;;;;;;5072343;28;20741;-66
2021/10/31 06:59:51;;;;;;;1999.90;999.90;;;21.60;99.90;;;;;;5073080;28;20223;-66
2021/10/31 07:02:18;;;;;;;1999.90;999.90;;;21.70;99.90;;;;;;5073050;28;20751;-66
2021/10/31 07:04:45;;;;;;;1999.90;999.90;;;21.80;99.90;;;;;;5072954;28;20259;-66
2021/10/31 07:07:13;;;;;;;1999.90;999.90;;;21.90;99.90;;;;;;5073000;28;20169;-66
2021/10/31 07:09:42;;;;;;;1999.90;999.90;;;21.90;99.90;;;;;;5072882;28;20184;-65
2021/10/31 07:12:09;;;;;;;1999.90;999.90;;;22.00;99.90;;;;;;5072933;28;20180;-65
2021/10/31 07:14:36;;;;;;;1999.90;999.90;;;22.10;99.90;;;;;;5072547;28;20220;-65
2021/10/31 07:17:07;;;;;;;1999.90;999.90;;;22.30;99.90;;;;;;5073092;28;20224;-66
2021/10/31 07:19:34;;;;;;;1999.90;999.90;;;22.40;99.90;;;;;;5073443;28;20168;-64
2021/10/31 07:22:01;;;;;;;1999.90;999.90;;;22.70;99.90;;;;;;5073476;28;20204;-66
2021/10/31 07:24:28;;;;;;;1999.90;999.90;;;23.00;99.90;;;;;;5073683;28;20173;-66
2021/10/31 07:26:54;;;;;;;1999.90;999.90;;;23.20;99.90;;;;;;5073406;28;20255;-66
2021/10/31 07:29:21;;;;;;;1999.90;999.90;;;23.60;99.90;;;;;;5073456;28;20175;-65
2021/10/31 07:31:50;;;;;;;1999.90;999.90;;;24.10;99.90;;;;;;5073616;28;20168;-65
2021/10/31 07:34:18;;;;;;;1999.90;999.90;;;24.50;99.90;;;;;;5073208;28;20263;-66
2021/10/31 07:36:45;;;;;;;1999.90;999.90;;;24.90;99.90;;;;;;5073267;28;20207;-66
2021/10/31 07:39:12;;;;;;;1999.90;999.90;;;25.20;99.90;;;;;;5073313;28;20251;-66
2021/10/31 07:41:39;;;;;;;1999.90;999.90;;;25.60;99.90;;;;;;5073203;28;20582;-65
2021/10/31 07:44:06;;;;;;;1999.90;999.90;;;25.80;99.90;;;;;;5073137;28;20255;-66
2021/10/31 07:46:34;;;;;;;1999.90;999.90;;;26.30;96.00;;;;;;5073137;28;20579;-66
2021/10/31 07:49:02;;;;;;;1999.90;999.90;;;26.60;93.30;;;;;;5072836;28;20233;-66
2021/10/31 07:51:29;;;;;;;1999.90;999.90;;;26.60;94.00;;;;;;5072822;28;20243;-65
2021/10/31 07:53:56;;;;;;;1999.90;999.90;;;26.70;92.40;;;;;;5072843;28;20177;-67
2021/10/31 07:56:26;;;;;;;1999.90;999.90;;;26.80;90.00;;;;;;5072535;28;20253;-66
2021/10/31 07:58:56;;;;;;;1999.90;999.90;;;26.90;86.40;;;;;;5072319;28;20529;-65
2021/10/31 08:01:24;;;;;;;1999.90;999.90;;;27.00;83.60;;;;;;5071339;28;20318;-65
2021/10/31 08:03:54;;;;;;;1999.90;999.90;;;26.90;85.10;;;;;;5071417;28;20168;-65
2021/10/31 08:06:22;;;;;;;1999.90;999.90;;;26.90;84.90;;;;;;5072582;28;20512;-67
2021/10/31 08:08:49;;;;;;;1999.90;999.90;;;27.00;84.10;;;;;;5073798;28;20167;-66
2021/10/31 08:11:16;;;;;;;1999.90;999.90;;;27.20;82.90;;;;;;5076459;28;20307;-66
2021/10/31 08:13:45;;;;;;;1999.90;999.90;;;27.40;81.00;;;;;;5076121;28;20165;-67
2021/10/31 08:16:12;;;;;;;1999.90;999.90;;;27.70;77.40;;;;;;5076674;28;20196;-65
2021/10/31 08:18:39;;;;;;;1999.90;999.90;;;27.80;76.00;;;;;;5075592;28;20177;-66
2021/10/31 08:21:05;;;;;;;1999.90;999.90;;;28.00;71.90;;;;;;5075570;28;20168;-64
2021/10/31 08:23:32;;;;;;;1999.90;999.90;;;28.60;67.40;;;;;;5075755;28;20164;-66
2021/10/31 08:26:00;;;;;;;1999.90;999.90;;;29.20;64.80;;;;;;5075571;28;20176;-66
2021/10/31 08:28:28;;;;;;;1999.90;999.90;;;29.40;61.30;;;;;;5075147;28;20184;-67
2021/10/31 08:30:57;;;;;;;1999.90;999.90;;;29.90;59.00;;;;;;5075215;28;20180;-67
2021/10/31 08:33:32;;;;;;;1999.90;999.90;;;30.20;57.20;;;;;;5075232;28;20172;-66
2021/10/31 08:36:00;;;;;;;1999.90;999.90;;;30.60;55.30;;;;;;5075150;28;20195;-66
2021/10/31 08:38:27;;;;;;;1999.90;999.90;;;31.10;52.90;;;;;;5075622;28;20499;-66
2021/10/31 08:40:55;;;;;;;1999.90;999.90;;;31.80;51.00;;;;;;5075243;28;20239;-66
2021/10/31 08:43:23;;;;;;;1999.90;999.90;;;31.70;51.80;;;;;;5075285;28;20645;-67
2021/10/31 08:45:52;;;;;;;1999.90;999.90;;;31.70;51.90;;;;;;5075255;28;20208;-66
2021/10/31 08:48:20;;;;;;;1999.90;999.90;;;32.50;49.90;;;;;;5075118;28;20175;-66
2021/10/31 08:50:47;;;;;;;1999.90;999.90;;;31.50;49.00;;;;;;5075137;28;20218;-67
2021/10/31 08:53:16;;;;;;;1999.90;999.90;;;31.40;51.40;;;;;;5075116;28;20172;-67
2021/10/31 08:55:43;;;;;;;1999.90;999.90;;;31.70;51.20;;;;;;5075053;28;20184;-66
2021/10/31 08:58:11;;;;;;;1999.90;999.90;;;32.10;50.30;;;;;;5075051;28;20263;-67
2021/10/31 09:00:39;;;;;;;1999.90;999.90;;;32.10;48.60;;;;;;5074983;28;20200;-66
2021/10/31 09:03:07;;;;;;;1999.90;999.90;;;32.00;48.40;;;;;;5075142;28;20190;-66
2021/10/31 09:05:35;;;;;;;1999.90;999.90;;;32.00;48.80;;;;;;5075269;28;20187;-66
2021/10/31 09:08:03;;;;;;;1999.90;999.90;;;32.80;47.50;;;;;;5075121;28;20168;-66
2021/10/31 09:10:30;;;;;;;1999.90;999.90;;;32.50;47.30;;;;;;5074740;28;20283;-66
2021/10/31 09:12:58;;;;;;;1999.90;999.90;;;32.70;47.00;;;;;;5074854;28;20263;-66
2021/10/31 09:15:28;;;;;;;1999.90;999.90;;;32.90;45.90;;;;;;5074495;28;20224;-66
2021/10/31 09:17:55;;;;;;;1999.90;999.90;;;33.40;45.60;;;;;;5074572;28;20222;-67
2021/10/31 09:20:25;;;;;;;1999.90;999.90;;;33.40;45.40;;;;;;5074102;28;20160;-66
2021/10/31 09:22:54;;;;;;;1999.90;999.90;;;32.60;45.30;;;;;;5074723;28;20192;-66
2021/10/31 09:25:22;;;;;;;1999.90;999.90;;;32.30;46.20;;;;;;5074466;28;20203;-65
2021/10/31 09:27:50;;;;;;;1999.90;999.90;;;32.60;46.20;;;;;;5074402;28;20196;-66
2021/10/31 09:30:17;;;;;;;1999.90;999.90;;;32.50;47.30;;;;;;5074360;28;20192;-66
2021/10/31 09:32:47;;;;;;;1999.90;999.90;;;32.90;47.60;;;;;;5074367;28;20621;-66
2021/10/31 09:35:23;;;;;;;1999.90;999.90;;;33.70;44.70;;;;;;5074198;28;20165;-67
2021/10/31 09:37:54;;;;;;;1999.90;999.90;;;33.50;44.40;;;;;;5074271;28;20156;-66
2021/10/31 09:40:22;;;;;;;1999.90;999.90;;;33.10;44.00;;;;;;5074276;28;20178;-66
2021/10/31 09:42:51;;;;;;;1999.90;999.90;;;33.70;41.40;;;;;;5074121;28;20205;-66
2021/10/31 09:45:20;;;;;;;1999.90;999.90;;;33.60;43.20;;;;;;5073913;28;20172;-66
2021/10/31 09:48:13;;;;;;;1999.90;999.90;;;32.90;43.80;;;;;;5073974;28;20256;-65
2021/10/31 09:50:51;;;;;;;1999.90;999.90;;;32.90;44.40;;;;;;5073758;28;20258;-65
2021/10/31 09:53:20;;;;;;;1999.90;999.90;;;32.40;44.90;;;;;;5074077;28;20157;-66
2021/10/31 09:55:49;;;;;;;1999.90;999.90;;;31.90;46.30;;;;;;5073879;28;20188;-65
2021/10/31 09:58:26;;;;;;;1999.90;999.90;;;32.00;45.60;;;;;;5073733;28;20165;-65
2021/10/31 10:00:59;;;;;;;1999.90;999.90;;;32.00;46.60;;;;;;5073844;28;20206;-66
2021/10/31 10:06:23;;;;;;;1999.90;999.90;;;32.50;46.50;;;;;;5073857;28;20611;-66
2021/10/31 10:09:11;;;;;;;1999.90;999.90;;;32.40;47.40;;;;;;5073949;28;20161;-66
2021/10/31 10:11:41;;;;;;;1999.90;999.90;;;32.90;46.00;;;;;;5073894;28;20199;-67
2021/10/31 10:14:37;;;;;;;1999.90;999.90;;;33.40;46.00;;;;;;5073470;28;20227;-67
2021/10/31 10:17:11;;;;;;;1999.90;999.90;;;33.40;44.50;;;;;;5064948;28;20248;-66
2021/10/31 10:19:56;;;;;;;1999.90;999.90;;;33.20;45.60;;;;;;5073923;28;20156;-67
2021/10/31 10:22:25;;;;;;;1999.90;999.90;;;33.10;45.90;;;;;;5073768;28;20163;-67
2021/10/31 10:25:03;;;;;;;1999.90;999.90;;;33.10;44.00;;;;;;5073672;28;20164;-67
2021/10/31 10:27:35;;;;;;;1999.90;999.90;;;33.40;44.10;;;;;;5073733;28;20152;-67
2021/10/31 10:30:19;;;;;;;1999.90;999.90;;;33.40;43.40;;;;;;5073659;28;20175;-66
2021/10/31 10:32:56;;;;;;;1999.90;999.90;;;33.50;43.90;;;;;;5072477;28;20210;-66
2021/10/31 10:35:26;;;;;;;1999.90;999.90;;;33.40;44.40;;;;;;5073278;28;20153;-66
2021/10/31 10:37:54;;;;;;;1999.90;999.90;;;33.30;44.70;;;;;;5073484;28;20164;-67
2021/10/31 10:40:28;;;;;;;1999.90;999.90;;;33.40;44.80;;;;;;5073683;28;20204;-67
2021/10/31 10:42:57;;;;;;;1999.90;999.90;;;33.40;43.10;;;;;;5073380;28;20236;-66
2021/10/31 10:45:30;;;;;;;1999.90;999.90;;;33.30;45.70;;;;;;5073421;28;20520;-67
2021/10/31 10:47:58;;;;;;;1999.90;999.90;;;33.20;45.50;;;;;;5073333;28;20161;-67
2021/10/31 10:50:33;;;;;;;1999.90;999.90;;;33.20;44.40;;;;;;5073263;28;20627;-66
2021/10/31 10:53:00;;;;;;;1999.90;999.90;;;33.60;43.80;;;;;;5073138;28;20156;-67
2021/10/31 10:55:29;;;;;;;1999.90;999.90;;;33.30;43.50;;;;;;5073114;28;20221;-66
2021/10/31 10:58:02;;;;;;;1999.90;999.90;;;33.50;44.20;;;;;;5073030;28;20168;-67
2021/10/31 11:00:38;;;;;;;1999.90;999.90;;;33.40;43.60;;;;;;5073017;28;20165;-66
2021/10/31 11:03:07;;;;;;;1999.90;999.90;;;33.50;44.30;;;;;;5073173;28;20167;-67
2021/10/31 11:05:40;;;;;;;1999.90;999.90;;;33.80;45.10;;;;;;5073385;28;20212;-67
2021/10/31 11:08:15;;;;;;;1999.90;999.90;;;33.70;43.40;;;;;;5073177;28;20188;-67
2021/10/31 11:10:52;;;;;;;1999.90;999.90;;;33.30;43.90;;;;;;5073225;28;20630;-67
2021/10/31 11:13:19;;;;;;;1999.90;999.90;;;33.60;43.00;;;;;;5072892;28;20160;-67
2021/10/31 11:15:46;;;;;;;1999.90;999.90;;;33.80;44.20;;;;;;5072797;28;20216;-64
2021/10/31 11:18:13;;;;;;;1999.90;999.90;;;33.90;43.40;;;;;;5073121;28;20596;-64
2021/10/31 11:20:43;;;;;;;1999.90;999.90;;;33.90;43.50;;;;;;5072888;28;20255;-64
2021/10/31 11:23:14;;;;;;;1999.90;999.90;;;34.30;43.20;;;;;;5072911;28;20172;-64
2021/10/31 11:25:43;;;;;;;1999.90;999.90;;;34.70;42.80;;;;;;5072902;28;20701;-64
2021/10/31 11:28:13;;;;;;;1999.90;999.90;;;34.50;43.20;;;;;;5072819;28;20176;-64
2021/10/31 11:30:43;;;;;;;1999.90;999.90;;;34.00;43.90;;;;;;5073082;28;20187;-64
2021/10/31 11:33:14;;;;;;;1999.90;999.90;;;33.10;43.50;;;;;;5072763;28;20302;-64
2021/10/31 11:35:42;;;;;;;1999.90;999.90;;;33.50;44.20;;;;;;5072717;28;20249;-64
2021/10/31 11:38:20;;;;;;;1999.90;999.90;;;33.20;44.50;;;;;;5072700;28;20255;-64
2021/10/31 11:41:03;;;;;;;1999.90;999.90;;;33.40;44.50;;;;;;5072681;28;20155;-64
2021/10/31 11:43:34;;;;;;;1999.90;999.90;;;33.40;45.80;;;;;;5073421;28;20607;-64
2021/10/31 11:46:03;;;;;;;1999.90;999.90;;;33.70;45.00;;;;;;5075492;28;20179;-64
2021/10/31 11:48:37;;;;;;;1999.90;999.90;;;34.00;43.50;;;;;;5076694;28;20169;-65
2021/10/31 11:51:04;;;;;;;1999.90;999.90;;;34.40;41.50;;;;;;5076798;28;20173;-66
2021/10/31 11:53:40;;;;;;;1999.90;999.90;;;34.40;41.70;;;;;;5076931;28;20294;-66
2021/10/31 11:56:24;;;;;;;1999.90;999.90;;;34.20;41.30;;;;;;5076707;28;20226;-65
2021/10/31 11:58:59;;;;;;;1999.90;999.90;;;33.80;42.40;;;;;;5076655;28;20171;-66
2021/10/31 12:01:54;;;;;;;1999.90;999.90;;;33.70;42.90;;;;;;5076578;28;20521;-66
2021/10/31 12:04:58;;;;;;;1999.90;999.90;;;33.60;42.70;;;;;;5076509;28;20152;-64
2021/10/31 12:07:42;;;;;;;1999.90;999.90;;;33.50;43.40;;;;;;5076544;28;20159;-68
2021/10/31 12:10:32;;;;;;;1999.90;999.90;;;32.90;43.80;;;;;;5076375;28;20196;-66
2021/10/31 12:13:18;;;;;;;1999.90;999.90;;;32.50;46.00;;;;;;5076394;28;20168;-66
2021/10/31 12:16:06;;;;;;;1999.90;999.90;;;32.00;47.20;;;;;;5075992;28;20216;-65
2021/10/31 12:18:58;;;;;;;1999.90;999.90;;;31.60;48.00;;;;;;5076302;28;20687;-66